Time;durP1;ratioP1;P1;durP2;ratioP2;P2;SDS_P1;SDS_P2;PMS_P1;PMS_P2;Temp;Humidity;BMP_temperature;BMP_pressure;BME280_temperature;BME280_humidity;BME280_pressure;Samples;Min_cycle;Max_cycle;Signal;HPM_P1;HPM_P2
2022/05/02 00:00:01;;;;;;;33.40;15.97;;;;;;;-145.69;100.00;72512.91;5053594;28;20199;-76
2022/05/02 00:02:28;;;;;;;31.37;16.63;;;;;;;-145.69;100.00;72504.94;5053087;28;20289;-76
2022/05/02 00:04:54;;;;;;;33.60;17.77;;;;;;;-145.69;100.00;72494.97;5053648;28;20207;-76
2022/05/02 00:07:22;;;;;;;34.63;17.37;;;;;;;-145.69;100.00;72502.94;5053191;28;20199;-75
2022/05/02 00:09:48;;;;;;;39.40;18.33;;;;;;;-145.69;100.00;72481.03;5050733;28;20195;-76
2022/05/02 00:12:15;;;;;;;40.13;19.30;;;;;;;-145.69;100.00;72487.00;5032980;28;20721;-75
2022/05/02 00:14:41;;;;;;;37.80;18.90;;;;;;;-145.69;100.00;72493.00;5033375;28;20200;-75
2022/05/02 00:17:07;;;;;;;38.67;18.40;;;;;;;-145.69;100.00;72473.09;5044062;28;20203;-76
2022/05/02 00:19:34;;;;;;;37.43;17.17;;;;;;;-145.69;100.00;72491.00;5053416;28;20203;-75
2022/05/02 00:22:00;;;;;;;42.10;18.90;;;;;;;-145.69;100.00;72475.06;5053186;28;20238;-75
2022/05/02 00:24:28;;;;;;;38.67;18.53;;;;;;;-145.69;100.00;72461.13;5053170;28;20207;-75
2022/05/02 00:26:56;;;;;;;44.63;20.77;;;;;;;-145.69;100.00;72469.09;5052921;28;20207;-75
2022/05/02 00:29:24;;;;;;;40.30;19.57;;;;;;;-145.69;100.00;72475.06;5052660;28;20600;-75
2022/05/02 00:31:50;;;;;;;42.50;20.60;;;;;;;-145.69;100.00;72469.09;5052852;28;20636;-76
2022/05/02 00:34:17;;;;;;;43.87;21.33;;;;;;;-145.69;100.00;72457.16;5052891;28;20666;-76
2022/05/02 00:36:43;;;;;;;51.45;27.88;;;;;;;-145.69;100.00;72455.16;5052011;28;20458;-76
2022/05/02 00:39:10;;;;;;;43.93;22.00;;;;;;;-145.69;100.00;72445.22;5052947;28;20294;-76
2022/05/02 00:41:37;;;;;;;42.07;20.87;;;;;;;-145.69;100.00;72439.25;5050250;28;20228;-76
2022/05/02 00:44:05;;;;;;;44.67;21.37;;;;;;;-145.69;100.00;72441.25;5046377;28;20194;-76
2022/05/02 00:46:32;;;;;;;40.90;21.17;;;;;;;-145.69;100.00;72435.28;5052681;28;20195;-76
2022/05/02 00:48:58;;;;;;;43.53;19.57;;;;;;;-145.69;100.00;72439.25;5052248;28;20245;-76
2022/05/02 00:51:25;;;;;;;42.07;20.93;;;;;;;-145.69;100.00;72443.22;5052859;28;20199;-77
2022/05/02 00:53:52;;;;;;;41.00;20.10;;;;;;;-145.69;100.00;72433.28;5052659;28;20799;-76
2022/05/02 00:56:21;;;;;;;39.63;19.43;;;;;;;-145.69;100.00;72433.28;5052641;28;20199;-76
2022/05/02 00:58:50;;;;;;;41.77;19.73;;;;;;;-145.69;100.00;72449.19;5052533;28;20290;-76
2022/05/02 01:01:16;;;;;;;40.33;19.93;;;;;;;-145.69;100.00;72445.22;5052614;28;20296;-76
2022/05/02 01:03:42;;;;;;;45.30;19.37;;;;;;;-145.69;100.00;72439.25;5052525;28;20661;-76
2022/05/02 01:08:54;;;;;;;41.80;21.10;;;;;;;-145.69;100.00;72449.19;5052775;28;20269;-76
2022/05/02 01:11:20;;;;;;;41.80;21.63;;;;;;;-145.69;100.00;72443.22;5052389;28;20604;-76
2022/05/02 01:13:50;;;;;;;46.67;21.43;;;;;;;-145.69;100.00;72449.19;5041282;28;20254;-75
2022/05/02 01:16:19;;;;;;;46.37;21.27;;;;;;;-145.69;100.00;72449.19;5032600;28;20250;-76
2022/05/02 01:18:48;;;;;;;45.50;21.33;;;;;;;-145.69;100.00;72441.25;5032705;28;20204;-76
2022/05/02 01:21:17;;;;;;;50.30;21.67;;;;;;;-145.69;100.00;72443.22;5032591;28;20674;-75
2022/05/02 01:23:45;;;;;;;40.43;20.50;;;;;;;-145.69;100.00;72441.25;5032372;28;20709;-76
2022/05/02 01:26:12;;;;;;;44.27;21.73;;;;;;;-145.69;100.00;72441.25;5032379;28;20724;-76
2022/05/02 01:28:42;;;;;;;40.90;20.20;;;;;;;-145.69;100.00;72439.25;5035305;28;20200;-76
2022/05/02 01:31:09;;;;;;;42.87;21.00;;;;;;;-145.69;100.00;72441.25;5036412;28;20258;-75
2022/05/02 01:33:35;;;;;;;38.53;19.43;;;;;;;-145.69;100.00;72445.22;5036216;28;20211;-75
2022/05/02 01:36:02;;;;;;;41.43;19.70;;;;;;;-145.69;100.00;72449.19;5036289;28;20196;-76
2022/05/02 01:38:30;;;;;;;39.63;20.20;;;;;;;-145.69;100.00;72449.19;5036091;28;20277;-76
2022/05/02 01:40:56;;;;;;;46.53;22.17;;;;;;;-145.69;100.00;72443.22;5035825;28;20658;-76
2022/05/02 01:43:23;;;;;;;45.67;21.47;;;;;;;-145.69;100.00;72453.19;5053998;28;20608;-76
2022/05/02 01:45:49;;;;;;;48.43;22.53;;;;;;;-145.69;100.00;72449.19;5055578;28;20195;-76
2022/05/02 01:48:16;;;;;;;42.13;20.10;;;;;;;-145.69;100.00;72467.13;5055898;28;20260;-76
2022/05/02 01:50:42;;;;;;;36.37;17.67;;;;;;;-145.69;100.00;72487.00;5054163;28;20246;-76
2022/05/02 01:53:08;;;;;;;43.63;19.93;;;;;;;-145.69;100.00;72473.09;5055685;28;20203;-76
2022/05/02 01:55:36;;;;;;;44.53;20.23;;;;;;;-145.69;100.00;72487.00;5055846;28;20203;-76
2022/05/02 01:58:03;;;;;;;39.50;19.93;;;;;;;-145.69;100.00;72500.94;5055681;28;20662;-75
2022/05/02 02:00:29;;;;;;;42.53;19.30;;;;;;;-145.69;100.00;72504.94;5055612;28;20238;-75
2022/05/02 02:02:56;;;;;;;38.30;18.13;;;;;;;-145.69;100.00;72512.91;5047222;28;20240;-76
2022/05/02 02:08:07;;;;;;;43.77;19.90;;;;;;;-145.69;100.00;72479.06;5035659;28;20285;-76
2022/05/02 02:10:33;;;;;;;45.40;20.33;;;;;;;-145.69;100.00;72477.06;5035593;28;20200;-75
2022/05/02 02:13:01;;;;;;;46.03;20.83;;;;;;;-145.69;100.00;72471.09;5049942;28;20577;-76
2022/05/02 02:15:28;;;;;;;38.63;19.80;;;;;;;-145.69;100.00;72477.06;5055299;28;20196;-75
2022/05/02 02:17:54;;;;;;;43.17;18.47;;;;;;;-145.69;100.00;72494.97;5055219;28;20701;-75
2022/05/02 02:20:21;;;;;;;33.83;17.50;;;;;;;-145.69;100.00;72508.91;5055528;28;20200;-76
2022/05/02 02:22:47;;;;;;;39.17;17.40;;;;;;;-145.69;100.00;72518.88;5055331;28;20353;-75
2022/05/02 02:25:14;;;;;;;36.30;17.83;;;;;;;-145.69;100.00;72544.75;5055070;28;20199;-76
2022/05/02 02:27:40;;;;;;;34.40;16.53;;;;;;;-145.69;100.00;72556.69;5055102;28;20650;-75
2022/05/02 02:30:10;;;;;;;32.43;17.00;;;;;;;-145.69;100.00;72566.63;5054904;28;20204;-76
2022/05/02 02:32:36;;;;;;;41.20;17.37;;;;;;;-145.69;100.00;72580.56;5054535;28;20211;-75
2022/05/02 02:35:03;;;;;;;44.10;19.67;;;;;;;-145.69;100.00;72564.66;5055329;28;20226;-76
2022/05/02 02:37:30;;;;;;;43.47;20.27;;;;;;;-145.69;100.00;72556.69;5055186;28;20203;-76
2022/05/02 02:39:56;;;;;;;47.80;20.73;;;;;;;-145.69;100.00;72540.75;5053270;28;20600;-76
2022/05/02 02:42:24;;;;;;;42.40;20.97;;;;;;;-145.69;100.00;72554.69;5054227;28;20241;-75
2022/05/02 02:44:51;;;;;;;46.40;21.03;;;;;;;-145.69;100.00;72538.78;5054933;28;20195;-76
2022/05/02 02:47:19;;;;;;;50.93;22.53;;;;;;;-145.69;100.00;72504.94;5054744;28;20207;-76
2022/05/02 02:49:45;;;;;;;57.10;24.23;;;;;;;-145.69;100.00;72504.94;5054803;28;20685;-76
2022/05/02 02:52:12;;;;;;;52.60;23.07;;;;;;;-145.69;100.00;72493.00;5054884;28;20253;-75
2022/05/02 02:54:38;;;;;;;51.23;23.90;;;;;;;-145.69;100.00;72489.00;5054710;28;20257;-75
2022/05/02 02:57:05;;;;;;;51.67;22.47;;;;;;;-145.69;100.00;72504.94;5054723;28;20253;-75
2022/05/02 02:59:31;;;;;;;51.13;22.90;;;;;;;-145.69;100.00;72500.94;5054380;28;20589;-75
2022/05/02 03:01:58;;;;;;;44.03;20.57;;;;;;;-145.69;100.00;72510.91;5054412;28;20231;-75
2022/05/02 03:07:12;;;;;;;35.87;18.13;;;;;;;-145.69;100.00;72544.75;5054195;28;20688;-75
2022/05/02 03:09:39;;;;;;;45.73;21.57;;;;;;;-145.69;100.00;72508.91;5054542;28;20206;-75
2022/05/02 03:12:06;;;;;;;46.57;19.33;;;;;;;-145.69;100.00;72516.88;5043906;28;20250;-75
2022/05/02 03:14:32;;;;;;;43.17;19.27;;;;;;;-145.69;100.00;72508.91;5034671;28;20250;-75
2022/05/02 03:16:59;;;;;;;42.43;19.20;;;;;;;-145.69;100.00;72510.91;5034152;28;20205;-76
2022/05/02 03:19:27;;;;;;;45.60;20.10;;;;;;;-145.69;100.00;72520.84;5034361;28;20253;-75
2022/05/02 03:21:53;;;;;;;50.47;21.03;;;;;;;-145.69;100.00;72512.91;5034361;28;20646;-75
2022/05/02 03:24:20;;;;;;;49.20;20.80;;;;;;;-145.69;100.00;72512.91;5034201;28;20289;-75
2022/05/02 03:26:46;;;;;;;49.17;21.50;;;;;;;-145.69;100.00;72520.84;5034174;28;20200;-75
2022/05/02 03:29:12;;;;;;;46.60;21.57;;;;;;;-145.69;100.00;72528.81;5034326;28;20274;-76
2022/05/02 03:31:41;;;;;;;54.37;23.20;;;;;;;-145.69;100.00;72520.84;5034189;28;20250;-75
2022/05/02 03:34:15;;;;;;;50.83;23.00;;;;;;;-145.69;100.00;72520.84;5033996;28;20205;-75
2022/05/02 03:36:43;;;;;;;49.30;24.03;;;;;;;-145.69;100.00;72518.88;5034000;28;20208;-75
2022/05/02 03:39:09;;;;;;;48.70;22.37;;;;;;;-145.69;100.00;72536.78;5033775;28;20273;-75
2022/05/02 03:41:36;;;;;;;37.70;18.97;;;;;;;-145.69;100.00;72566.63;5039278;28;20269;-76
2022/05/02 03:44:02;;;;;;;38.00;17.97;;;;;;;-145.69;100.00;72584.56;5053669;28;20231;-75
2022/05/02 03:46:31;;;;;;;35.70;16.97;;;;;;;-145.69;100.00;72594.50;5053459;28;20195;-75
2022/05/02 03:49:00;;;;;;;37.37;17.57;;;;;;;-145.69;100.00;72600.47;5053639;28;20200;-75
2022/05/02 03:51:30;;;;;;;38.03;16.50;;;;;;;-145.69;100.00;72598.47;5053296;28;20727;-75
2022/05/02 03:53:58;;;;;;;33.70;17.07;;;;;;;-145.69;100.00;72590.53;5053308;28;20276;-75
2022/05/02 03:56:25;;;;;;;51.87;20.50;;;;;;;-145.69;100.00;72578.56;5053605;28;20203;-76
2022/05/02 03:58:53;;;;;;;45.03;20.03;;;;;;;-145.69;100.00;72582.56;5053570;28;20199;-75
2022/05/02 04:01:20;;;;;;;58.77;29.03;;;;;;;-145.69;100.00;72586.53;5051905;28;20787;-75
2022/05/02 04:03:48;;;;;;;45.07;21.87;;;;;;;-145.69;100.00;72608.44;5053557;28;20231;-75
2022/05/02 04:06:17;;;;;;;46.87;20.47;;;;;;;-145.69;100.00;72618.38;5053214;28;20235;-75
2022/05/02 04:08:47;;;;;;;49.93;21.20;;;;;;;-145.69;100.00;72588.53;5052939;28;20206;-75
2022/05/02 04:11:17;;;;;;;56.30;22.53;;;;;;;-145.69;100.00;72572.59;5051606;28;20222;-75
2022/05/02 04:13:47;;;;;;;60.37;23.00;;;;;;;-145.69;100.00;72560.66;5033505;28;20208;-76
2022/05/02 04:16:13;;;;;;;58.83;23.67;;;;;;;-145.69;100.00;72562.66;5033169;28;20223;-75
2022/05/02 04:18:41;;;;;;;64.27;24.20;;;;;;;-145.69;100.00;72552.69;5033125;28;20204;-76
2022/05/02 04:21:10;;;;;;;64.10;26.00;;;;;;;-145.69;100.00;72554.69;5050288;28;20343;-76
2022/05/02 04:23:40;;;;;;;60.13;25.27;;;;;;;-145.69;100.00;72542.75;5053093;28;20227;-75
2022/05/02 04:26:07;;;;;;;82.47;29.50;;;;;;;-145.69;100.00;72520.84;5053704;28;20196;-75
2022/05/02 04:28:42;;;;;;;86.70;30.20;;;;;;;-145.69;100.00;72502.94;5052767;28;20195;-75
2022/05/02 04:31:08;;;;;;;95.37;34.80;;;;;;;-145.69;100.00;72489.00;5052841;28;20210;-76
2022/05/02 04:33:35;;;;;;;78.97;29.13;;;;;;;-145.69;100.00;72489.00;5052775;28;20723;-76
2022/05/02 04:36:05;;;;;;;69.03;27.93;;;;;;;-145.69;100.00;72496.97;5052456;28;20195;-75
2022/05/02 04:38:32;;;;;;;77.50;28.17;;;;;;;-145.69;100.00;72493.00;5052328;28;20196;-76
2022/05/02 04:41:00;;;;;;;72.30;25.73;;;;;;;-145.69;100.00;72496.97;5049719;28;20187;-75
2022/05/02 04:43:29;;;;;;;81.97;32.77;;;;;;;-145.69;100.00;72498.97;5032530;28;20461;-75
2022/05/02 04:45:56;;;;;;;57.70;24.77;;;;;;;-145.69;100.00;72500.94;5032514;28;20278;-75
2022/05/02 04:48:26;;;;;;;51.77;24.50;;;;;;;-145.69;100.00;72512.91;5033083;28;20207;-76
2022/05/02 04:50:52;;;;;;;47.87;23.47;;;;;;;-145.69;100.00;72520.84;5032939;28;20257;-75
2022/05/02 04:53:20;;;;;;;53.33;23.73;;;;;;;-145.69;100.00;72522.84;5032935;28;20234;-75
2022/05/02 04:55:48;;;;;;;51.77;22.00;;;;;;;-145.69;100.00;72522.84;5032537;28;20226;-75
2022/05/02 04:58:15;;;;;;;50.40;22.10;;;;;;;-145.69;100.00;72510.91;5032772;28;20294;-76
2022/05/02 05:00:42;;;;;;;57.27;24.13;;;;;;;-145.69;100.00;72500.94;5032709;28;20294;-75
2022/05/02 05:03:10;;;;;;;64.90;25.03;;;;;;;-145.69;100.00;72494.97;5034739;28;20243;-75
2022/05/02 05:05:40;;;;;;;61.40;23.97;;;;;;;-145.69;100.00;72493.00;5036879;28;20208;-75
2022/05/02 05:08:06;;;;;;;54.23;22.07;;;;;;;-145.69;100.00;72485.03;5036857;28;20693;-75
2022/05/02 05:10:48;;;;;;;62.90;25.63;;;;;;;-145.69;100.00;72465.13;5038101;28;20207;-75
2022/05/02 05:13:20;;;;;;;62.43;25.87;;;;;;;-145.69;100.00;72445.22;5056488;28;20685;-75
2022/05/02 05:16:24;;;;;;;75.40;27.87;;;;;;;-145.69;100.00;72425.31;5056932;28;20222;-76
2022/05/02 05:19:24;;;;;;;65.57;26.93;;;;;;;-145.69;100.00;72413.38;5056070;28;20206;-75
2022/05/02 05:22:03;;;;;;;64.17;27.20;;;;;;;-145.69;100.00;72397.44;5056734;28;20277;-76
2022/05/02 05:25:04;;;;;;;66.80;27.40;;;;;;;-145.69;100.00;72373.56;5056402;28;20226;-75
2022/05/02 05:27:49;;;;;;;65.20;26.60;;;;;;;-145.69;100.00;72367.59;5013219;28;20225;-76
2022/05/02 05:30:19;;;;;;;70.47;26.80;;;;;;;-145.69;100.00;72359.63;5056800;28;20203;-75
2022/05/02 05:32:57;;;;;;;64.57;26.43;;;;;;;-145.69;100.00;72349.69;5056299;28;20295;-75
2022/05/02 05:35:41;;;;;;;85.57;31.33;;;;;;;-145.69;100.00;72297.94;5056336;28;20207;-76
2022/05/02 05:38:10;;;;;;;88.43;32.03;;;;;;;-145.69;100.00;72258.13;5056224;28;20200;-75
2022/05/02 05:40:43;;;;;;;81.23;32.97;;;;;;;-145.69;100.00;72234.25;5053782;28;20245;-75
2022/05/02 05:43:36;;;;;;;78.93;32.27;;;;;;;-145.69;100.00;72222.31;5036224;28;20282;-75
2022/05/02 05:46:26;;;;;;;66.53;27.83;;;;;;;-145.69;100.00;72214.34;5036126;28;20292;-76
2022/05/02 05:49:03;;;;;;;56.20;25.47;;;;;;;-145.69;100.00;72204.38;5036038;28;20246;-76
2022/05/02 05:51:36;;;;;;;48.63;23.80;;;;;;;-145.69;100.00;72196.44;5036201;28;20200;-76
2022/05/02 05:54:15;;;;;;;49.30;22.67;;;;;;;-145.69;100.00;72174.53;5036003;28;20200;-76
2022/05/02 05:56:51;;;;;;;50.57;24.80;;;;;;;-145.69;100.00;72158.63;5035629;28;20650;-75
2022/05/02 05:59:27;;;;;;;49.43;23.00;;;;;;;-145.69;100.00;72142.69;5036063;28;20192;-76
2022/05/02 06:02:04;;;;;;;45.13;23.50;;;;;;;-145.69;100.00;72128.75;5035789;28;20601;-76
2022/05/02 06:04:33;;;;;;;42.17;22.80;;;;;;;-145.69;100.00;72104.88;5035742;28;20259;-76
2022/05/02 06:07:01;;;;;;;38.67;21.70;;;;;;;-145.69;100.00;72094.94;5035384;28;20243;-76
2022/05/02 06:09:32;;;;;;;48.20;23.87;;;;;;;-145.69;100.00;72081.00;5036006;28;20196;-76
2022/05/02 06:12:06;;;;;;;40.20;20.97;;;;;;;-145.69;100.00;72055.13;5035538;28;20211;-76
2022/05/02 06:18:27;;;;;;;37.80;19.93;;;;;;;-145.69;100.00;72029.25;5035672;28;20230;-76
2022/05/02 06:20:14;;;;;;;27.93;16.47;;;;;;;-145.69;100.00;71943.69;5053698;28;20309;-76
2022/05/02 06:22:47;;;;;;;29.53;17.33;;;;;;;-145.69;100.00;71885.97;5055358;28;20196;-76
2022/05/02 06:25:14;;;;;;;23.97;14.73;;;;;;;-145.69;100.00;71832.22;5055438;28;20632;-76
2022/05/02 06:27:43;;;;;;;20.07;14.40;;;;;;;-145.69;100.00;71810.34;5055049;28;20724;-76
2022/05/02 06:30:12;;;;;;;22.13;12.77;;;;;;;-145.69;100.00;71788.44;5054530;28;20325;-76
2022/05/02 06:32:43;;;;;;;19.67;12.60;;;;;;;-145.69;100.00;71720.78;5055581;28;20206;-76
2022/05/02 06:35:11;;;;;;;21.87;11.93;;;;;;;-145.69;100.00;71748.66;5055104;28;20534;-76
2022/05/02 06:37:50;;;;;;;20.43;11.87;;;;;;;-145.69;100.00;71740.69;5055102;28;20286;-76
2022/05/02 06:40:25;;;;;;;21.30;12.70;;;;;;;-145.69;100.00;71728.75;5054838;28;20426;-76
2022/05/02 06:43:04;;;;;;;22.30;12.17;;;;;;;-145.69;100.00;71688.94;5055141;28;20252;-76
2022/05/02 06:45:39;;;;;;;20.73;12.83;;;;;;;-145.69;100.00;71700.88;5054970;28;20257;-75
2022/05/02 06:48:39;;;;;;;20.20;12.90;;;;;;;-145.69;100.00;71682.97;5055078;28;20199;-76
2022/05/02 06:51:08;;;;;;;21.87;12.07;;;;;;;-145.69;100.00;71661.09;5052375;28;20204;-76
2022/05/02 06:54:12;;;;;;;23.20;12.70;;;;;;;-145.69;100.00;71647.16;5054439;28;20206;-76
2022/05/02 06:56:44;;;;;;;23.23;11.93;;;;;;;-145.69;100.00;71613.31;5054522;28;20199;-76
2022/05/02 06:59:32;;;;;;;24.43;13.27;;;;;;;-145.69;100.00;71607.34;5053612;28;20203;-76
2022/05/02 07:02:02;;;;;;;20.73;12.17;;;;;;;-145.69;100.00;71583.47;5034077;28;20319;-76
2022/05/02 07:04:41;;;;;;;20.77;12.60;;;;;;;-145.69;100.00;71583.47;5034785;28;20220;-76
2022/05/02 07:07:24;;;;;;;22.53;12.47;;;;;;;-145.69;100.00;71565.56;5034488;28;20688;-76
2022/05/02 07:09:57;;;;;;;23.33;11.53;;;;;;;-145.69;100.00;71555.63;5034807;28;20207;-76
2022/05/02 07:12:29;;;;;;;27.20;12.00;;;;;;;-145.69;100.00;71539.69;5034733;28;20200;-76
2022/05/02 07:15:12;;;;;;;21.17;12.33;;;;;;;-145.69;100.00;71515.81;5034668;28;20223;-76
2022/05/02 07:18:05;;;;;;;17.50;10.93;;;;;;;-145.69;100.00;71485.97;5034390;28;20253;-76
2022/05/02 07:20:43;;;;;;;15.67;10.83;;;;;;;-145.69;96.96;71480.00;5034370;28;20295;-76
2022/05/02 07:23:26;;;;;;;17.50;10.53;;;;;;;-145.69;97.20;71478.00;5034233;28;20262;-76
2022/05/02 07:26:03;;;;;;;19.77;10.47;;;;;;;-145.69;95.46;71452.16;5034065;28;20568;-76
2022/05/02 07:28:36;;;;;;;17.97;10.60;;;;;;;-145.69;93.01;71442.19;5034137;28;20204;-76
2022/05/02 07:31:05;;;;;;;18.20;10.10;;;;;;;-145.69;94.71;71408.38;5049561;28;20597;-76
2022/05/02 07:33:40;;;;;;;14.33;9.67;;;;;;;-145.69;91.10;71406.38;5053999;28;20249;-76
2022/05/02 07:36:07;;;;;;;17.77;10.33;;;;;;;-145.69;92.95;71416.31;5053945;28;20195;-76
2022/05/02 07:38:35;;;;;;;17.98;9.27;;;;;;;-145.69;85.09;71390.47;5053468;28;20199;-76
2022/05/02 07:41:23;;;;;;;15.47;10.03;;;;;;;-145.69;86.39;71410.34;5053458;28;20203;-76
2022/05/02 07:43:51;;;;;;;19.23;10.95;;;;;;;-145.69;88.14;71370.56;5053954;28;20251;-76
2022/05/02 07:46:21;;;;;;;17.10;8.93;;;;;;;-145.69;89.83;71334.75;5053802;28;20257;-76
2022/05/02 07:48:50;;;;;;;20.73;9.93;;;;;;;-145.69;89.45;71318.81;5053697;28;20289;-76
2022/05/02 07:51:17;;;;;;;14.80;9.23;;;;;;;-145.69;80.81;71300.91;5053661;28;20214;-76
2022/05/02 07:53:44;;;;;;;13.15;8.68;;;;;;;-145.69;83.20;71225.31;5053450;28;20290;-77
2022/05/02 07:56:14;;;;;;;18.25;8.45;;;;;;;-145.69;79.42;71209.38;5053415;28;20200;-76
2022/05/02 07:58:41;;;;;;;12.55;7.88;;;;;;;-145.69;79.07;71161.63;5053768;28;20200;-76
2022/05/02 08:01:08;;;;;;;14.20;8.20;;;;;;;-145.69;74.03;71203.41;5034292;28;20736;-76
2022/05/02 08:03:34;;;;;;;12.45;7.68;;;;;;;-145.69;78.02;71203.41;5040189;28;20250;-76
2022/05/02 08:06:15;;;;;;;11.48;6.93;;;;;;;-145.69;72.24;71195.47;5041583;28;20196;-76
2022/05/02 08:08:53;;;;;;;11.65;6.95;;;;;;;-145.69;75.04;71133.78;5033406;28;20206;-76
2022/05/02 08:11:30;;;;;;;11.55;7.25;;;;;;;-145.69;69.14;71211.38;5033421;28;20200;-76
2022/05/02 08:14:07;;;;;;;12.15;7.97;;;;;;;-145.69;74.97;71275.03;5032841;28;20654;-76
2022/05/02 08:16:41;;;;;;;12.93;9.00;;;;;;;-145.69;84.26;71324.78;5033249;28;20203;-76
2022/05/02 08:19:28;;;;;;;14.13;9.50;;;;;;;-145.69;88.52;71304.91;5033502;28;20263;-76
2022/05/02 08:27:52;;;;;;;14.73;9.88;;;;;;;-145.69;88.08;71374.53;5053267;28;20289;-76
2022/05/02 08:30:23;;;;;;;17.70;9.90;;;;;;;-145.69;88.85;71326.78;5053099;28;20659;-76
2022/05/02 08:33:00;;;;;;;18.67;10.40;;;;;;;-145.69;87.74;71283.00;5052736;28;20199;-75
2022/05/02 08:35:39;;;;;;;15.63;9.00;;;;;;;-145.69;85.75;71255.16;5047383;28;20196;-76
2022/05/02 08:38:42;;;;;;;16.88;8.75;;;;;;;-145.69;80.59;71255.16;5032401;28;20196;-77
2022/05/02 08:41:41;;;;;;;17.60;8.90;;;;;;;-145.69;82.13;71233.25;5027629;28;20681;-76
2022/05/02 08:44:50;;;;;;;14.30;7.97;;;;;;;-145.69;76.63;71209.38;5032884;28;20231;-76
2022/05/02 08:50:50;;;;;;;16.17;9.40;;;;;;;-145.69;84.83;71145.72;5090599;28;20552;-77
2022/05/02 08:53:50;;;;;;;12.85;8.27;;;;;;;-145.69;73.37;71090.00;5090433;28;20578;-75
2022/05/02 08:56:31;;;;;;;12.45;8.05;;;;;;;-145.69;76.85;71185.50;5090660;28;20202;-75
2022/05/02 08:59:33;;;;;;;16.02;8.73;;;;;;;-145.69;83.25;71103.94;5087261;28;20202;-75
2022/05/02 09:02:37;;;;;;;16.45;8.40;;;;;;;-145.69;74.27;71105.91;5072797;28;20562;-75
2022/05/02 09:05:39;;;;;;;11.65;7.45;;;;;;;-145.69;70.08;71107.91;5088832;28;20205;-76
2022/05/02 09:08:38;;;;;;;11.70;7.63;;;;;;;-145.69;73.52;71082.03;5090108;28;20598;-75
2022/05/02 09:11:32;;;;;;;14.60;6.70;;;;;;;-145.69;70.59;71088.00;5090284;28;20202;-74
2022/05/02 09:14:35;;;;;;;11.15;7.18;;;;;;;-145.69;70.97;71084.03;5090171;28;20294;-76
2022/05/02 09:17:29;;;;;;;10.30;6.28;;;;;;;-145.69;66.83;71103.94;5087880;28;20202;-75
2022/05/02 09:20:14;;;;;;;10.43;6.63;;;;;;;-145.69;75.17;71129.78;5045681;28;20206;-77
2022/05/02 09:23:34;;;;;;;13.50;6.50;;;;;;;-145.69;71.37;71159.63;5089884;28;20210;-75
2022/05/02 09:26:29;;;;;;;10.00;6.45;;;;;;;-145.69;71.91;71225.31;5042193;28;20664;-76
2022/05/02 09:29:13;;;;;;;9.73;7.00;;;;;;;-145.69;75.58;71239.22;5071717;28;20233;-75
2022/05/02 09:31:52;;;;;;;15.80;8.38;;;;;;;-145.69;74.49;71185.50;5088983;28;20526;-75
2022/05/02 09:34:23;;;;;;;13.65;8.55;;;;;;;-145.69;76.68;71203.41;5084744;28;20202;-76
2022/05/02 09:37:02;;;;;;;11.65;7.60;;;;;;;-145.69;75.54;71213.38;5089546;28;20213;-76
2022/05/02 09:39:48;;;;;;;12.77;7.57;;;;;;;-145.69;72.55;71167.59;5089498;28;20228;-77
2022/05/02 09:42:34;;;;;;;9.30;6.35;;;;;;;-145.69;74.54;71099.94;5088943;28;20209;-76
2022/05/02 09:51:42;;;;;;;8.48;5.55;;;;;;;-145.69;70.52;71030.31;5074157;28;20209;-75
2022/05/02 09:56:37;;;;;;;11.88;6.85;;;;;;;-145.69;68.53;71018.38;5067061;28;20260;-75
2022/05/02 09:57:15;;;;;;;9.82;6.10;;;;;;;-145.69;65.02;71012.41;5068978;28;20536;-75
2022/05/02 09:59:47;;;;;;;12.07;5.90;;;;;;;-145.69;65.27;71028.31;5079175;28;20648;-75
2022/05/02 10:02:20;;;;;;;7.85;5.50;;;;;;;-145.69;68.59;71101.94;5075438;28;20260;-76
2022/05/02 10:04:58;;;;;;;10.63;5.43;;;;;;;-145.69;71.74;71115.88;5075030;28;20718;-75
2022/05/02 10:07:25;;;;;;;8.10;5.30;;;;;;;-145.69;66.76;71056.16;5075357;28;20672;-74
2022/05/02 10:10:03;;;;;;;9.93;6.30;;;;;;;-145.69;63.14;71086.03;5075442;28;20321;-74
2022/05/02 10:12:46;;;;;;;7.93;5.50;;;;;;;-145.69;62.37;71010.41;5075542;28;20293;-74
2022/05/02 10:15:35;;;;;;;7.97;5.38;;;;;;;-145.69;61.33;70996.47;5075259;28;20557;-75
2022/05/02 10:18:32;;;;;;;8.52;5.53;;;;;;;-145.69;61.81;71024.34;5075502;28;20222;-74
2022/05/02 10:21:06;;;;;;;11.70;6.80;;;;;;;-145.69;64.88;71040.25;5074485;28;20442;-74
2022/05/02 10:23:45;;;;;;;9.63;6.47;;;;;;;-145.69;65.03;71010.41;5071883;28;20200;-74
2022/05/02 10:26:26;;;;;;;9.32;6.47;;;;;;;-145.69;66.72;70994.50;5075184;28;20645;-74
2022/05/02 10:29:25;;;;;;;9.52;6.10;;;;;;;-145.69;65.13;70972.59;5075172;28;20229;-74
2022/05/02 10:32:03;;;;;;;11.75;6.13;;;;;;;-145.69;62.83;70928.84;5075314;28;20580;-75
2022/05/02 10:34:32;;;;;;;13.65;7.00;;;;;;;-145.69;62.86;70966.63;5074838;28;20195;-75
2022/05/02 10:37:03;;;;;;;14.45;6.90;;;;;;;-145.69;67.56;71084.03;5075192;28;20248;-74
2022/05/02 10:39:40;;;;;;;11.93;6.43;;;;;;;-145.69;68.95;71040.25;5074955;28;20202;-75
2022/05/02 10:42:08;;;;;;;9.98;5.65;;;;;;;-145.69;66.28;70964.66;5074728;28;20206;-74
2022/05/02 10:44:46;;;;;;;11.55;6.28;;;;;;;-145.69;63.99;70992.50;5074885;28;20194;-74
2022/05/02 10:47:15;;;;;;;9.82;5.40;;;;;;;-145.69;66.69;71002.44;5074766;28;20198;-76
2022/05/02 10:50:00;;;;;;;7.32;5.30;;;;;;;-145.69;63.81;70954.69;5074603;28;20234;-75
2022/05/02 10:52:44;;;;;;;9.00;5.30;;;;;;;-145.69;60.94;70906.94;5074671;28;20199;-75
2022/05/02 10:55:19;;;;;;;7.82;4.80;;;;;;;-145.69;61.17;70857.22;5074769;28;20301;-75
2022/05/02 10:57:47;;;;;;;8.45;4.65;;;;;;;-145.69;59.37;70881.09;5074531;28;20664;-74
2022/05/02 11:00:15;;;;;;;7.00;4.38;;;;;;;-145.69;57.13;70843.28;5074244;28;20723;-74
2022/05/02 11:03:10;;;;;;;7.13;4.47;;;;;;;-145.69;53.80;70817.41;5074450;28;20198;-74
2022/05/02 11:05:46;;;;;;;6.55;4.40;;;;;;;-145.69;53.29;70823.38;5074504;28;20224;-75
2022/05/02 11:08:15;;;;;;;6.45;4.07;;;;;;;-145.69;53.88;70787.56;5074199;28;20277;-75
2022/05/02 11:10:47;;;;;;;5.28;3.60;;;;;;;-145.69;56.05;70845.28;5074270;28;20226;-75
2022/05/02 11:13:24;;;;;;;6.20;4.40;;;;;;;-145.69;52.84;70879.09;5073240;28;20285;-75
2022/05/02 11:16:07;;;;;;;6.97;3.58;;;;;;;-145.69;51.33;70839.31;5074434;28;20627;-75
2022/05/02 11:21:37;;;;;;;6.72;4.70;;;;;;;-145.69;56.71;70853.22;5074103;28;20675;-75
2022/05/02 11:24:22;;;;;;;10.05;5.80;;;;;;;-145.69;59.66;70910.94;5074266;28;20256;-75
2022/05/02 11:26:55;;;;;;;9.48;6.05;;;;;;;-145.69;63.06;70978.56;5074130;28;20209;-75
2022/05/02 11:29:29;;;;;;;11.73;5.85;;;;;;;-145.69;63.00;70946.75;5073955;28;20235;-75
2022/05/02 11:31:59;;;;;;;8.98;5.25;;;;;;;-145.69;59.90;70908.94;5073504;28;20202;-75
2022/05/02 11:34:35;;;;;;;8.80;5.55;;;;;;;-145.69;60.34;70912.91;5073793;28;20616;-76
2022/05/02 11:37:02;;;;;;;9.40;5.75;;;;;;;-145.69;59.01;70920.88;5073415;28;20201;-75
2022/05/02 11:39:40;;;;;;;8.10;5.38;;;;;;;-145.69;60.15;70904.97;5073930;28;20244;-75
2022/05/02 11:42:10;;;;;;;8.40;5.60;;;;;;;-145.69;60.93;70946.75;5073532;28;20198;-75
2022/05/02 11:44:51;;;;;;;9.90;5.53;;;;;;;-145.69;61.37;70924.84;5073558;28;20727;-75
2022/05/02 11:47:29;;;;;;;7.53;5.28;;;;;;;-145.69;58.46;70900.97;5073463;28;20268;-75
2022/05/02 11:50:04;;;;;;;7.68;5.00;;;;;;;-145.69;59.41;70889.03;5073380;28;20264;-75
2022/05/02 11:52:32;;;;;;;8.50;5.05;;;;;;;-145.69;59.95;70829.34;5073597;28;20284;-76
2022/05/02 11:55:00;;;;;;;7.03;4.47;;;;;;;-145.69;58.11;70755.75;5073194;28;20199;-76
2022/05/02 11:57:29;;;;;;;8.38;4.63;;;;;;;-145.69;55.93;70735.84;5073520;28;20613;-76